WetterOnline ( http://www.wetteronline.de )

Wetter aktuell Bremervörde

Aktuelles Wetter: Bremervörde (5m)

6-stündlich | Neueste Meldungen
Ortszeit Temperatur Wetter
Mi, 22.08. 2:00 15.9° C wolkig
Di, 21.08. 20:00 22.8° C fast wolkenlos
Di, 21.08. 14:00 23.0° C wolkig
Di, 21.08. 8:00 14.4° C -
Di, 21.08. 2:00 15.6° C -
Mo, 20.08. 20:00 18.6° C bedeckt
Mo, 20.08. 14:00 20.6° C bedeckt
Mo, 20.08. 8:00 18.6° C bedeckt
Ortszeit Temperatur Wetter
Mi, 22.08. 5:30 14.8° C bewölkt
Mi, 22.08. 5:20 14.8° C bewölkt
Mi, 22.08. 5:10 14.9° C bedeckt
Mi, 22.08. 5:00 15.0° C wolkig
Mi, 22.08. 4:50 15.0° C wolkig
Mi, 22.08. 4:40 15.0° C leicht bewölkt
Mi, 22.08. 4:30 15.1° C leicht bewölkt
Mi, 22.08. 4:00 15.8° C bedeckt
Mi, 22.08. 3:30 15.6° C bewölkt
Mi, 22.08. 3:00 15.2° C fast wolkenlos
Mi, 22.08. 2:30 15.4° C wolkenlos
Ortszeit Relative Feuchte Sichtweite
Mi, 22.08. 2:00 73% 30 km
Di, 21.08. 20:00 53% 70 km
Di, 21.08. 14:00 46% 26 km
Di, 21.08. 8:00 93% 17 km
Di, 21.08. 2:00 88% 40 km
Mo, 20.08. 20:00 75% 55 km
Mo, 20.08. 14:00 76% 18 km
Mo, 20.08. 8:00 93% 12 km
Ortszeit Relative Feuchte Sichtweite
Mi, 22.08. 5:30 72% 50 km
Mi, 22.08. 5:20 72% -
Mi, 22.08. 5:10 72% -
Mi, 22.08. 5:00 72% 55 km
Mi, 22.08. 4:50 72% -
Mi, 22.08. 4:40 72% -
Mi, 22.08. 4:30 72% 26 km
Mi, 22.08. 4:00 69% 26 km
Mi, 22.08. 3:30 71% 45 km
Mi, 22.08. 3:00 73% 40 km
Mi, 22.08. 2:30 73% 40 km
Ortszeit Niederschlagsmenge Niederschlagsart
Mi, 22.08. 2:00 0.0 l/m2 in 6 Std. -
Di, 21.08. 20:00 0.0 l/m2 in 12 Std. -
Di, 21.08. 14:00 0.0 l/m2 in 6 Std. -
Di, 21.08. 8:00 0.0 l/m2 in 12 Std. -
Di, 21.08. 2:00 0.0 l/m2 in 6 Std. -
Mo, 20.08. 20:00 0.1 l/m2 in 12 Std. -
Mo, 20.08. 14:00 0.1 l/m2 in 6 Std. Regen
Mo, 20.08. 8:00 0.1 l/m2 in 12 Std. Regen
Ortszeit Niederschlagsmenge Niederschlagsart
Mi, 22.08. 5:30 0.0 l/m2 in 1 Std. -
Mi, 22.08. 5:20 keine Meldung -
Mi, 22.08. 5:10 keine Meldung -
Mi, 22.08. 5:00 0.0 l/m2 in 1 Std. -
Mi, 22.08. 4:50 keine Meldung -
Mi, 22.08. 4:40 keine Meldung -
Mi, 22.08. 4:30 0.0 l/m2 in 1 Std. -
Mi, 22.08. 4:00 0.0 l/m2 in 1 Std. -
Mi, 22.08. 3:30 0.0 l/m2 in 1 Std. -
Mi, 22.08. 3:00 0.0 l/m2 in 1 Std. -
Mi, 22.08. 2:30 0.0 l/m2 in 1 Std. -
Ortszeit Stärke Spitze Richtung
km/h Bft. km/h Grad Sektor
Mi, 22.08. 2:00 6 1 11 140° SO
Di, 21.08. 20:00 4 1 18 30° NO
Di, 21.08. 14:00 6 1 17 260° W
Di, 21.08. 8:00 0 0 7 - -
Di, 21.08. 2:00 0 0 14 - -
Mo, 20.08. 20:00 13 3 30 350° N
Mo, 20.08. 14:00 18 3 36 350° N
Mo, 20.08. 8:00 17 3 26 250° W
Ortszeit Stärke Spitze Richtung
km/h Bft. km/h Grad Sektor
Mi, 22.08. 5:30 6 1 9 140° SO
Mi, 22.08. 5:20 6 1 - 140° SO
Mi, 22.08. 5:10 7 2 - 140° SO
Mi, 22.08. 5:00 6 1 11 140° SO
Mi, 22.08. 4:50 6 1 - 140° SO
Mi, 22.08. 4:40 6 1 - 140° SO
Mi, 22.08. 4:30 6 1 11 150° SO
Mi, 22.08. 4:00 7 2 14 140° SO
Mi, 22.08. 3:30 7 2 14 140° SO
Mi, 22.08. 3:00 7 2 11 130° SO
Mi, 22.08. 2:30 7 2 11 140° SO
Ortszeit Untergrenze Bedeckung Gattung
total tief tief mittel hoch
Mi, 22.08. 2:00 3000 m 8/8 1/8 - - -
Di, 21.08. 20:00 2100 m 1/8 1/8 - - -
Di, 21.08. 14:00 2700 m 6/8 8/8 - - -
Di, 21.08. 8:00 - - - - - -
Di, 21.08. 2:00 - - - - - -
Mo, 20.08. 20:00 1020 m 8/8 8/8 - - -
Mo, 20.08. 14:00 540 m 8/8 8/8 - - -
Mo, 20.08. 8:00 780 m 8/8 8/8 - - -
Ortszeit Bedeckungsgrad in Achtel und Wolkenuntergrenze
Mi, 22.08. 5:30 7(2700m)
Mi, 22.08. 5:20 7(2700m)
Mi, 22.08. 5:10 8(2700m)
Mi, 22.08. 5:00 6(2700m)
Mi, 22.08. 4:50 6(2700m)
Mi, 22.08. 4:40 4(2700m)
Mi, 22.08. 4:30 3(2700m)
Mi, 22.08. 4:00 8(2700m)
Mi, 22.08. 3:30 7(2700m)
Mi, 22.08. 3:00 1(3000m)
Mi, 22.08. 2:30 1(3000m)
Ortszeit Luftdruck NN (hPa) Tendenz (hPa in 3 Std.)
Mi, 22.08. 2:00 1021 0,0
Di, 21.08. 20:00 1020 - 1,1
Di, 21.08. 14:00 1022 - 0,8
Di, 21.08. 8:00 1022 + 0,9
Di, 21.08. 2:00 1021 + 0,6
Mo, 20.08. 20:00 1019 + 0,7
Mo, 20.08. 14:00 1018 + 1,1
Mo, 20.08. 8:00 1015 - 0,2
Ortszeit Luftdruck NN (hPa) Tendenz (hPa in 3 Std.)
Mi, 22.08. 5:30 1019 - 1,0
Mi, 22.08. 5:20 1019 keine Meldung
Mi, 22.08. 5:10 1019 keine Meldung
Mi, 22.08. 5:00 1020 - 0,9
Mi, 22.08. 4:50 1020 keine Meldung
Mi, 22.08. 4:40 1020 keine Meldung
Mi, 22.08. 4:30 1020 - 0,7
Mi, 22.08. 4:00 1020 - 0,4
Mi, 22.08. 3:30 1020 - 0,4
Mi, 22.08. 3:00 1020 - 0,3
Mi, 22.08. 2:30 1020 + 0,1
Ortszeit Schneehöhe (cm)
Mi, 22.08. 2:00 -
Di, 21.08. 20:00 -
Di, 21.08. 14:00 -
Di, 21.08. 8:00 -
Di, 21.08. 2:00 -
Mo, 20.08. 20:00 -
Mo, 20.08. 14:00 -
Mo, 20.08. 8:00 -
Ortszeit Schneehöhe (cm)
Mi, 22.08. 5:30 -
Mi, 22.08. 5:20 -
Mi, 22.08. 5:10 -
Mi, 22.08. 5:00 -
Mi, 22.08. 4:50 -
Mi, 22.08. 4:40 -
Mi, 22.08. 4:30 -
Mi, 22.08. 4:00 -
Mi, 22.08. 3:30 -
Mi, 22.08. 3:00 -
Mi, 22.08. 2:30 -
Link zu dieser Seite / Seite empfehlen

Das Wetter in ...